Time;durP1;ratioP1;P1;durP2;ratioP2;P2;SDS_P1;SDS_P2;PMS_P1;PMS_P2;Temp;Humidity;BMP_temperature;BMP_pressure;BME280_temperature;BME280_humidity;BME280_pressure;Samples;Min_cycle;Max_cycle;Signal;HPM_P1;HPM_P2
2023/03/20 00:00:18;;;;;;;16.90;14.70;;;9.80;99.90;;;;;;5061272;28;20505;-71
2023/03/20 00:02:45;;;;;;;20.52;17.00;;;9.80;99.90;;;;;;5064835;28;20434;-72
2023/03/20 00:05:18;;;;;;;18.95;16.05;;;9.90;99.90;;;;;;5063261;28;20954;-72
2023/03/20 00:07:48;;;;;;;19.33;16.40;;;9.90;99.90;;;;;;5065168;28;20507;-72
2023/03/20 00:10:16;;;;;;;19.05;16.10;;;9.90;99.90;;;;;;5064005;28;20818;-72
2023/03/20 00:12:43;;;;;;;17.88;15.30;;;9.90;99.90;;;;;;5060666;28;20869;-72
2023/03/20 00:15:24;;;;;;;19.53;16.03;;;9.90;99.90;;;;;;5051920;28;20411;-72
2023/03/20 00:17:51;;;;;;;18.92;15.60;;;9.90;99.90;;;;;;5064898;28;20426;-71
2023/03/20 00:20:18;;;;;;;17.65;14.82;;;9.80;99.90;;;;;;5064710;28;20415;-71
2023/03/20 00:22:46;;;;;;;18.30;15.60;;;9.80;99.90;;;;;;5063249;28;20432;-70
2023/03/20 00:25:15;;;;;;;17.08;14.95;;;9.80;99.90;;;;;;5062496;28;20427;-71
2023/03/20 00:27:42;;;;;;;15.60;13.82;;;9.80;99.90;;;;;;5064456;28;20462;-71
2023/03/20 00:30:27;;;;;;;17.43;14.97;;;9.80;99.90;;;;;;5063844;28;20416;-74
2023/03/20 00:32:55;;;;;;;17.88;15.07;;;9.80;99.90;;;;;;5062869;28;20517;-71
2023/03/20 00:35:26;;;;;;;17.23;15.00;;;9.80;99.90;;;;;;5063526;28;20404;-70
2023/03/20 00:37:56;;;;;;;18.52;15.43;;;9.80;99.90;;;;;;5056159;28;20435;-71
2023/03/20 00:40:26;;;;;;;17.20;15.07;;;9.80;99.90;;;;;;5058952;28;20421;-71
2023/03/20 00:42:58;;;;;;;17.15;15.20;;;9.80;99.90;;;;;;5062394;28;20419;-72
2023/03/20 00:45:26;;;;;;;18.27;15.52;;;9.80;99.90;;;;;;5063803;28;20786;-72
2023/03/20 00:47:53;;;;;;;17.73;15.30;;;9.80;99.90;;;;;;5065205;28;20415;-72
2023/03/20 00:50:22;;;;;;;18.60;15.77;;;9.70;99.90;;;;;;5064392;28;20415;-74
2023/03/20 00:52:51;;;;;;;19.45;16.85;;;9.70;99.90;;;;;;5061718;28;20488;-71
2023/03/20 00:55:22;;;;;;;17.67;15.63;;;9.60;99.90;;;;;;5054740;28;20442;-71
2023/03/20 00:57:51;;;;;;;18.95;15.90;;;9.60;99.90;;;;;;5063737;28;20814;-71
2023/03/20 01:00:22;;;;;;;20.00;17.37;;;9.50;99.90;;;;;;5060110;28;20501;-71
2023/03/20 01:02:49;;;;;;;19.93;16.57;;;9.50;99.90;;;;;;5054286;28;20519;-73
2023/03/20 01:05:16;;;;;;;19.83;17.73;;;9.50;99.90;;;;;;5060996;28;20458;-72
2023/03/20 01:07:44;;;;;;;21.60;17.23;;;9.50;99.90;;;;;;5063566;28;20889;-72
2023/03/20 01:10:12;;;;;;;20.27;16.90;;;9.50;99.90;;;;;;5061238;28;20573;-73
2023/03/20 01:12:41;;;;;;;19.08;16.50;;;9.50;99.90;;;;;;5060475;28;20512;-72
2023/03/20 01:15:17;;;;;;;19.80;17.20;;;9.50;99.90;;;;;;5063882;28;21089;-71
2023/03/20 01:17:45;;;;;;;18.92;16.90;;;9.50;99.90;;;;;;5062547;28;20534;-73
2023/03/20 01:20:16;;;;;;;20.60;16.27;;;9.50;99.90;;;;;;5052027;28;20425;-72
2023/03/20 01:22:43;;;;;;;19.33;16.90;;;9.50;99.90;;;;;;5048938;28;20436;-71
2023/03/20 01:25:11;;;;;;;21.05;17.27;;;9.50;99.90;;;;;;5057743;28;20505;-70
2023/03/20 01:27:38;;;;;;;21.20;17.77;;;9.40;99.90;;;;;;5058889;28;20412;-71
2023/03/20 01:30:17;;;;;;;19.65;16.92;;;9.40;99.90;;;;;;5062191;28;20438;-72
2023/03/20 01:32:45;;;;;;;20.13;17.38;;;9.50;99.90;;;;;;5062078;28;20428;-72
2023/03/20 01:35:13;;;;;;;20.73;17.10;;;9.50;99.90;;;;;;5063176;28;20497;-73
2023/03/20 01:37:41;;;;;;;19.13;16.20;;;9.40;99.90;;;;;;5062764;28;20632;-74
2023/03/20 01:40:28;;;;;;;20.13;16.33;;;9.40;99.90;;;;;;5051395;28;20504;-73
2023/03/20 01:42:56;;;;;;;18.63;16.63;;;9.40;99.90;;;;;;5057404;28;21010;-74
2023/03/20 01:45:29;;;;;;;18.77;16.20;;;9.50;99.90;;;;;;5055252;28;20425;-72
2023/03/20 01:47:57;;;;;;;18.38;16.02;;;9.60;99.90;;;;;;5054863;28;20423;-73
2023/03/20 01:50:30;;;;;;;17.88;15.82;;;9.50;99.90;;;;;;5062432;28;20465;-73
2023/03/20 01:53:06;;;;;;;18.10;15.45;;;9.50;99.90;;;;;;5062065;28;20431;-71
2023/03/20 01:55:34;;;;;;;15.98;14.27;;;9.50;99.90;;;;;;5053164;28;20907;-72
2023/03/20 01:58:04;;;;;;;18.00;14.32;;;9.50;99.90;;;;;;5048675;28;20429;-73
2023/03/20 02:00:32;;;;;;;17.30;14.23;;;9.50;99.90;;;;;;5061953;28;20498;-71
2023/03/20 02:02:59;;;;;;;16.15;14.40;;;9.50;99.90;;;;;;5062947;28;20420;-73
2023/03/20 02:05:26;;;;;;;17.08;14.38;;;9.50;99.90;;;;;;5062908;28;20560;-71
2023/03/20 02:08:05;;;;;;;16.35;13.98;;;9.40;99.90;;;;;;5054168;28;20437;-71
2023/03/20 02:10:32;;;;;;;17.77;15.63;;;9.40;99.90;;;;;;5057236;28;20419;-72
2023/03/20 02:13:00;;;;;;;16.60;14.02;;;9.40;99.90;;;;;;5061164;28;20912;-73
2023/03/20 02:15:27;;;;;;;16.27;13.82;;;9.40;99.90;;;;;;5062564;28;20418;-73
2023/03/20 02:17:55;;;;;;;15.65;13.80;;;9.30;99.90;;;;;;5067408;28;20485;-72
2023/03/20 02:20:33;;;;;;;15.50;13.80;;;9.30;99.90;;;;;;5065734;28;20487;-71
2023/03/20 02:23:38;;;;;;;17.17;14.68;;;9.20;99.90;;;;;;5063460;28;20458;-72
2023/03/20 02:26:31;;;;;;;15.73;13.13;;;9.20;99.90;;;;;;5053179;28;20450;-72
2023/03/20 02:29:41;;;;;;;16.23;13.48;;;9.20;99.90;;;;;;5064270;28;20879;-72
2023/03/20 02:32:47;;;;;;;15.32;13.43;;;9.20;99.90;;;;;;5057558;28;20474;-75
2023/03/20 02:35:43;;;;;;;16.92;13.77;;;9.10;99.90;;;;;;5058870;28;20415;-71
2023/03/20 02:38:33;;;;;;;15.20;13.45;;;9.10;99.90;;;;;;5062933;28;20482;-74
2023/03/20 02:41:11;;;;;;;15.55;13.60;;;9.10;99.90;;;;;;5061392;28;20411;-71
2023/03/20 02:43:48;;;;;;;15.43;13.30;;;9.10;99.90;;;;;;5066179;28;20423;-73
2023/03/20 02:46:33;;;;;;;16.60;13.67;;;9.10;99.90;;;;;;5065430;28;20535;-73
2023/03/20 02:49:06;;;;;;;17.35;13.60;;;9.10;99.90;;;;;;5065548;28;20431;-73
2023/03/20 02:51:38;;;;;;;15.45;12.95;;;9.00;99.90;;;;;;5065247;28;20458;-73
2023/03/20 02:54:13;;;;;;;15.10;13.50;;;9.00;99.90;;;;;;5065491;28;20895;-73
2023/03/20 02:56:50;;;;;;;15.55;13.50;;;8.90;99.90;;;;;;5066699;28;20442;-74
2023/03/20 02:59:26;;;;;;;16.27;13.68;;;8.90;99.90;;;;;;5066436;28;20426;-74
2023/03/20 03:01:59;;;;;;;16.42;13.35;;;8.80;99.90;;;;;;5057058;28;20435;-72
2023/03/20 03:04:29;;;;;;;16.70;13.73;;;8.80;99.90;;;;;;5058742;28;20430;-72
2023/03/20 03:06:58;;;;;;;17.10;13.73;;;8.80;99.90;;;;;;5064832;28;20439;-73
2023/03/20 03:09:30;;;;;;;14.98;12.75;;;8.70;99.90;;;;;;5066107;28;20885;-74
2023/03/20 03:12:02;;;;;;;16.52;14.80;;;8.70;99.90;;;;;;5052252;28;20415;-73
2023/03/20 03:14:35;;;;;;;16.33;13.82;;;8.70;99.90;;;;;;5065723;28;20415;-73
2023/03/20 03:17:03;;;;;;;16.90;13.55;;;8.70;99.90;;;;;;5065989;28;20424;-73
2023/03/20 03:19:31;;;;;;;17.60;14.77;;;8.70;99.90;;;;;;5057670;28;20774;-73
2023/03/20 03:21:58;;;;;;;15.93;13.85;;;8.70;99.90;;;;;;5049055;28;20446;-73
2023/03/20 03:24:31;;;;;;;15.50;13.57;;;8.70;99.90;;;;;;5054519;28;20494;-71
2023/03/20 03:27:01;;;;;;;17.87;14.00;;;8.80;99.90;;;;;;5065239;28;20431;-70
2023/03/20 03:29:34;;;;;;;18.17;14.90;;;8.80;99.90;;;;;;5064385;28;20407;-74
2023/03/20 03:32:03;;;;;;;16.90;14.50;;;8.90;99.90;;;;;;5066541;28;20451;-71
2023/03/20 03:34:32;;;;;;;16.75;13.55;;;8.90;99.90;;;;;;5063361;28;20469;-73
2023/03/20 03:37:06;;;;;;;17.05;14.50;;;8.90;99.90;;;;;;5060191;28;20507;-72
2023/03/20 03:39:40;;;;;;;16.42;14.13;;;8.90;99.90;;;;;;5056604;28;20432;-72
2023/03/20 03:42:12;;;;;;;18.53;15.03;;;8.90;99.90;;;;;;5056077;28;20519;-72
2023/03/20 03:44:47;;;;;;;18.23;13.98;;;8.90;99.90;;;;;;5062592;28;20447;-71
2023/03/20 03:47:18;;;;;;;18.67;14.90;;;8.90;99.90;;;;;;5057383;28;20800;-71
2023/03/20 03:49:50;;;;;;;18.85;14.40;;;8.90;99.90;;;;;;5048602;28;20417;-72
2023/03/20 03:52:21;;;;;;;18.10;14.50;;;8.90;99.90;;;;;;5056116;28;20775;-72
2023/03/20 03:54:52;;;;;;;18.50;14.38;;;8.80;99.90;;;;;;5050258;28;20934;-70
2023/03/20 03:57:22;;;;;;;17.42;14.85;;;8.80;99.90;;;;;;5059178;28;20520;-73
2023/03/20 03:59:51;;;;;;;19.33;14.30;;;8.70;99.90;;;;;;5059514;28;20427;-73
2023/03/20 04:02:19;;;;;;;17.08;13.98;;;8.80;99.90;;;;;;5065560;28;20419;-73
2023/03/20 04:04:50;;;;;;;17.40;14.45;;;8.70;99.90;;;;;;5066079;28;20986;-71
2023/03/20 04:07:16;;;;;;;19.27;16.50;;;8.70;99.90;;;;;;5060942;28;20460;-71
2023/03/20 04:09:43;;;;;;;16.88;14.40;;;8.70;99.90;;;;;;5060551;28;20423;-73
2023/03/20 04:12:34;;;;;;;19.13;16.30;;;8.80;99.90;;;;;;5056325;28;20517;-71
2023/03/20 04:15:01;;;;;;;17.25;15.15;;;8.70;99.90;;;;;;5068337;28;20420;-72
2023/03/20 04:17:28;;;;;;;18.80;14.45;;;8.70;99.90;;;;;;5067098;28;20525;-72
2023/03/20 04:19:55;;;;;;;19.25;15.02;;;8.70;99.90;;;;;;5065947;28;20913;-70
2023/03/20 04:22:21;;;;;;;18.70;15.20;;;8.70;99.90;;;;;;5065657;28;20499;-72
2023/03/20 04:24:50;;;;;;;15.13;13.38;;;8.70;99.90;;;;;;5066575;28;20872;-72
2023/03/20 04:27:18;;;;;;;16.48;12.20;;;8.60;99.90;;;;;;5069206;28;20447;-71
2023/03/20 04:29:45;;;;;;;13.57;10.50;;;8.60;99.90;;;;;;5075592;28;20431;-72
2023/03/20 04:32:11;;;;;;;13.63;11.45;;;8.50;99.90;;;;;;5082024;28;20427;-72
2023/03/20 04:34:38;;;;;;;12.57;10.65;;;8.50;99.90;;;;;;5078992;28;20487;-74
2023/03/20 04:37:07;;;;;;;12.00;10.52;;;8.40;99.90;;;;;;5064043;28;20431;-72
2023/03/20 04:39:34;;;;;;;13.57;11.68;;;8.40;99.90;;;;;;5067642;28;20898;-73
2023/03/20 04:42:00;;;;;;;13.13;11.53;;;8.30;99.90;;;;;;5066846;28;20482;-72
2023/03/20 04:44:28;;;;;;;14.55;11.38;;;8.30;99.90;;;;;;5065757;28;20411;-71
2023/03/20 04:46:55;;;;;;;13.88;11.27;;;8.30;99.90;;;;;;5066607;28;20443;-71
2023/03/20 04:49:22;;;;;;;17.60;13.50;;;8.20;99.90;;;;;;5054687;28;20435;-74
2023/03/20 04:51:49;;;;;;;18.13;13.45;;;8.20;99.90;;;;;;5056583;28;20436;-72
2023/03/20 04:54:15;;;;;;;15.87;12.00;;;8.20;99.90;;;;;;5066007;28;20415;-71
2023/03/20 04:56:42;;;;;;;17.45;14.10;;;8.20;99.90;;;;;;5066873;28;20407;-73
2023/03/20 04:59:09;;;;;;;14.48;11.95;;;8.10;99.90;;;;;;5068029;28;20416;-71
2023/03/20 05:01:37;;;;;;;13.65;11.45;;;8.20;99.90;;;;;;5066315;28;20508;-71
2023/03/20 05:04:04;;;;;;;17.40;14.30;;;8.10;99.90;;;;;;5060483;28;20446;-73
2023/03/20 05:06:31;;;;;;;12.45;10.93;;;8.10;99.90;;;;;;5061326;28;20892;-72
2023/03/20 05:08:59;;;;;;;13.23;9.93;;;8.10;99.90;;;;;;5056321;28;20546;-71
2023/03/20 05:11:26;;;;;;;14.50;11.10;;;8.10;99.90;;;;;;5063964;28;20851;-71
2023/03/20 05:13:53;;;;;;;14.23;10.27;;;8.00;99.90;;;;;;5066398;28;20868;-72
2023/03/20 05:16:20;;;;;;;13.50;10.95;;;8.00;99.90;;;;;;5065575;28;20404;-72
2023/03/20 05:18:48;;;;;;;14.65;11.00;;;8.00;99.90;;;;;;5066246;28;20423;-72
2023/03/20 05:21:15;;;;;;;13.07;10.83;;;7.90;99.90;;;;;;5054814;28;20439;-72
2023/03/20 05:23:42;;;;;;;14.20;11.35;;;7.90;99.90;;;;;;5059462;28;20613;-71
2023/03/20 05:26:08;;;;;;;12.85;11.27;;;7.90;99.90;;;;;;5065565;28;20874;-71
2023/03/20 05:28:35;;;;;;;17.17;14.60;;;7.90;99.90;;;;;;5061460;28;20456;-72
2023/03/20 05:31:02;;;;;;;13.13;11.20;;;7.80;99.90;;;;;;5069701;28;20428;-72
2023/03/20 05:33:29;;;;;;;13.85;11.50;;;7.80;99.90;;;;;;5067829;28;20518;-72
2023/03/20 05:35:57;;;;;;;17.85;13.45;;;7.80;99.90;;;;;;5070898;28;20818;-71
2023/03/20 05:38:25;;;;;;;14.65;12.02;;;7.80;99.90;;;;;;5064196;28;20415;-72
2023/03/20 05:40:56;;;;;;;17.05;12.90;;;7.70;99.90;;;;;;5069002;28;20827;-72
2023/03/20 05:43:23;;;;;;;17.48;14.15;;;7.80;99.90;;;;;;5067311;28;20513;-70
2023/03/20 05:45:49;;;;;;;15.93;12.77;;;7.70;99.90;;;;;;5067747;28;20530;-73
2023/03/20 05:48:19;;;;;;;15.50;11.70;;;7.80;99.90;;;;;;5076833;28;20431;-75
2023/03/20 05:50:45;;;;;;;16.20;12.70;;;7.80;99.90;;;;;;5069998;28;20475;-76
2023/03/20 05:53:14;;;;;;;16.50;12.55;;;7.80;99.90;;;;;;5064179;28;20408;-73
2023/03/20 05:55:43;;;;;;;17.42;13.20;;;7.80;99.90;;;;;;5070943;28;20770;-73
2023/03/20 05:58:10;;;;;;;20.92;12.38;;;7.80;99.90;;;;;;5067918;28;20430;-74
2023/03/20 06:00:37;;;;;;;14.60;11.32;;;7.80;99.90;;;;;;5070212;28;20744;-73
2023/03/20 06:03:05;;;;;;;17.83;11.10;;;7.80;99.90;;;;;;5060787;28;20446;-73
2023/03/20 06:05:32;;;;;;;16.08;11.85;;;7.80;99.90;;;;;;5066021;28;20526;-74
2023/03/20 06:07:59;;;;;;;16.15;12.73;;;7.80;99.90;;;;;;5064099;28;20427;-73
2023/03/20 06:10:28;;;;;;;17.13;14.20;;;7.80;99.90;;;;;;5063028;28;20455;-73
2023/03/20 06:12:55;;;;;;;18.55;13.18;;;7.80;99.90;;;;;;5069790;28;20436;-73
2023/03/20 06:15:22;;;;;;;17.58;14.40;;;7.80;99.90;;;;;;5058256;28;20530;-75
2023/03/20 06:17:49;;;;;;;15.85;12.35;;;7.80;99.90;;;;;;5069574;28;20448;-74
2023/03/20 06:20:17;;;;;;;14.65;12.48;;;7.90;99.90;;;;;;5054267;28;20757;-75
2023/03/20 06:22:45;;;;;;;14.77;12.60;;;7.90;99.90;;;;;;5063796;28;20428;-73
2023/03/20 06:25:11;;;;;;;15.07;12.60;;;7.90;99.90;;;;;;5068241;28;20481;-73
2023/03/20 06:27:39;;;;;;;20.88;14.68;;;7.90;99.90;;;;;;5062387;28;20428;-75
2023/03/20 06:30:07;;;;;;;14.88;12.10;;;7.90;99.90;;;;;;5059506;28;20439;-76
2023/03/20 06:32:34;;;;;;;15.05;12.57;;;7.90;99.90;;;;;;5067877;28;20437;-76
2023/03/20 06:35:01;;;;;;;17.35;12.20;;;7.90;99.90;;;;;;5066047;28;20545;-74
2023/03/20 06:37:27;;;;;;;16.38;13.75;;;7.90;99.90;;;;;;5062836;28;20439;-75
2023/03/20 06:39:54;;;;;;;16.92;14.15;;;8.00;99.90;;;;;;5055438;28;20439;-65
2023/03/20 06:42:21;;;;;;;16.60;13.40;;;8.00;99.90;;;;;;5061913;28;20432;-74
2023/03/20 06:44:49;;;;;;;15.98;13.20;;;8.00;99.90;;;;;;5062542;28;20443;-73
2023/03/20 06:47:16;;;;;;;14.55;12.32;;;8.10;99.90;;;;;;5065841;28;20437;-74
2023/03/20 06:49:43;;;;;;;19.30;15.45;;;8.20;99.90;;;;;;5063263;28;20504;-77
2023/03/20 06:52:15;;;;;;;13.45;11.10;;;8.20;99.90;;;;;;5077182;28;20400;-75
2023/03/20 06:54:42;;;;;;;18.38;13.98;;;8.30;99.90;;;;;;5084626;28;20416;-76
2023/03/20 06:57:09;;;;;;;15.52;11.93;;;8.30;99.90;;;;;;5081142;28;20434;-74
2023/03/20 06:59:36;;;;;;;20.27;15.73;;;8.30;99.90;;;;;;5069088;28;20435;-74
2023/03/20 07:02:06;;;;;;;13.40;11.32;;;8.30;99.90;;;;;;5062861;28;20485;-74
2023/03/20 07:04:32;;;;;;;15.38;13.38;;;8.30;99.90;;;;;;5059021;28;20715;-74
2023/03/20 07:06:59;;;;;;;17.63;13.60;;;8.30;99.90;;;;;;5066802;28;20928;-73
2023/03/20 07:09:26;;;;;;;16.90;13.57;;;8.40;99.90;;;;;;5067081;28;20443;-75
2023/03/20 07:11:53;;;;;;;14.75;11.70;;;8.50;99.90;;;;;;5061548;28;20477;-74
2023/03/20 07:14:21;;;;;;;14.07;11.95;;;8.50;99.90;;;;;;5066070;28;20435;-73
2023/03/20 07:16:48;;;;;;;19.38;14.20;;;8.50;99.90;;;;;;5063943;28;20445;-75
2023/03/20 07:19:16;;;;;;;21.52;16.08;;;8.60;99.90;;;;;;5064437;28;20780;-75
2023/03/20 07:21:43;;;;;;;17.88;13.23;;;8.60;99.90;;;;;;5063270;28;20431;-73
2023/03/20 07:24:10;;;;;;;15.38;12.38;;;8.70;99.90;;;;;;5062339;28;20439;-74
2023/03/20 07:26:38;;;;;;;16.15;12.10;;;8.80;99.70;;;;;;5055335;28;20435;-74
2023/03/20 07:29:05;;;;;;;17.13;12.85;;;8.90;99.50;;;;;;5059438;28;20431;-76
2023/03/20 07:31:32;;;;;;;16.58;12.00;;;8.90;98.90;;;;;;5059745;28;20433;-77
2023/03/20 07:33:58;;;;;;;16.23;11.93;;;9.10;98.60;;;;;;5059689;28;20720;-73
2023/03/20 07:36:26;;;;;;;15.77;11.63;;;9.10;98.00;;;;;;5060460;28;20416;-72
2023/03/20 07:38:53;;;;;;;14.85;11.85;;;9.10;97.30;;;;;;5065831;28;20455;-73
2023/03/20 07:41:20;;;;;;;13.63;10.65;;;9.10;98.10;;;;;;5056562;28;20421;-73
2023/03/20 07:43:46;;;;;;;11.63;9.52;;;9.10;97.60;;;;;;5066136;28;20434;-76
2023/03/20 07:46:13;;;;;;;13.15;10.75;;;9.10;96.50;;;;;;5071446;28;20462;-74
2023/03/20 07:48:40;;;;;;;12.17;9.73;;;9.00;96.10;;;;;;5072483;28;20427;-74
2023/03/20 07:51:07;;;;;;;10.60;9.20;;;9.00;96.10;;;;;;5072230;28;20439;-73
2023/03/20 07:53:35;;;;;;;12.15;9.73;;;9.00;96.50;;;;;;5066758;28;20435;-74
2023/03/20 07:56:02;;;;;;;13.95;10.93;;;9.00;96.20;;;;;;5065731;28;20816;-73
2023/03/20 07:58:29;;;;;;;9.45;8.40;;;9.00;96.60;;;;;;5062029;28;20424;-73
2023/03/20 08:00:57;;;;;;;8.57;7.65;;;9.00;95.70;;;;;;5061322;28;20443;-73
2023/03/20 08:03:23;;;;;;;12.00;8.50;;;9.00;95.10;;;;;;5065391;28;20449;-73
2023/03/20 08:05:50;;;;;;;9.43;8.52;;;9.00;95.50;;;;;;5059057;28;20540;-73
2023/03/20 08:08:17;;;;;;;19.03;12.97;;;9.10;95.20;;;;;;5058481;28;20887;-74
2023/03/20 08:10:45;;;;;;;12.95;9.73;;;9.00;95.30;;;;;;5055609;28;20429;-74
2023/03/20 08:13:12;;;;;;;13.02;9.65;;;9.10;95.50;;;;;;5059255;28;20446;-73
2023/03/20 08:15:39;;;;;;;8.60;7.20;;;9.20;95.60;;;;;;5056803;28;20537;-75
2023/03/20 08:18:06;;;;;;;12.53;7.63;;;9.30;94.90;;;;;;5060356;28;20530;-73
2023/03/20 08:20:33;;;;;;;8.93;6.57;;;9.40;94.40;;;;;;5058917;28;20518;-73
2023/03/20 08:22:59;;;;;;;16.13;10.07;;;9.50;93.80;;;;;;5058457;28;20435;-74
2023/03/20 08:25:28;;;;;;;14.73;10.00;;;9.50;93.80;;;;;;5056361;28;20882;-73
2023/03/20 08:27:56;;;;;;;8.55;6.85;;;9.50;93.50;;;;;;5057368;28;20902;-74
2023/03/20 08:30:24;;;;;;;8.50;6.55;;;9.60;93.30;;;;;;5062908;28;20432;-73
2023/03/20 08:32:50;;;;;;;15.57;8.60;;;9.60;92.30;;;;;;5058552;28;20725;-74
2023/03/20 08:35:17;;;;;;;16.33;10.50;;;9.70;92.40;;;;;;5056980;28;20872;-74
2023/03/20 08:37:44;;;;;;;7.18;6.47;;;9.70;91.90;;;;;;5061002;28;20427;-74
2023/03/20 08:40:13;;;;;;;6.80;6.10;;;9.60;91.20;;;;;;5055585;28;20444;-73
2023/03/20 08:42:39;;;;;;;7.60;6.45;;;9.60;91.40;;;;;;5061505;28;20454;-73
2023/03/20 08:45:09;;;;;;;9.40;7.03;;;9.60;91.60;;;;;;5059807;28;20447;-73
2023/03/20 08:47:36;;;;;;;10.65;7.13;;;9.60;90.40;;;;;;5058132;28;20510;-73
2023/03/20 08:50:04;;;;;;;13.05;8.60;;;9.60;90.40;;;;;;5057156;28;20515;-74
2023/03/20 08:52:31;;;;;;;13.48;8.48;;;9.70;90.70;;;;;;5050891;28;20872;-74
2023/03/20 08:54:58;;;;;;;9.90;7.38;;;9.70;90.20;;;;;;5059257;28;20454;-73
2023/03/20 08:57:25;;;;;;;8.60;6.25;;;9.60;90.10;;;;;;5055763;28;20452;-75
2023/03/20 08:59:52;;;;;;;9.00;6.20;;;9.70;90.10;;;;;;5051084;28;20435;-75
2023/03/20 09:02:20;;;;;;;6.90;6.20;;;9.80;90.30;;;;;;5052679;28;20999;-73
2023/03/20 09:04:46;;;;;;;7.13;6.43;;;9.90;90.20;;;;;;5053955;28;20466;-73
2023/03/20 09:07:14;;;;;;;7.15;6.35;;;10.00;90.20;;;;;;5055294;28;20448;-73
2023/03/20 09:09:41;;;;;;;7.95;6.30;;;10.20;88.40;;;;;;5058307;28;20438;-74
2023/03/20 09:12:08;;;;;;;7.22;6.53;;;10.30;87.30;;;;;;5055321;28;20456;-75
2023/03/20 09:14:35;;;;;;;8.82;6.70;;;10.30;85.90;;;;;;5062612;28;20904;-73
2023/03/20 09:17:02;;;;;;;9.57;7.05;;;10.20;86.10;;;;;;5065195;28;20431;-73
2023/03/20 09:19:31;;;;;;;8.00;6.77;;;10.10;84.80;;;;;;5058486;28;21497;-74
2023/03/20 09:21:58;;;;;;;10.18;7.10;;;10.10;86.00;;;;;;5061769;28;20436;-74
2023/03/20 09:24:25;;;;;;;8.77;6.50;;;10.10;86.20;;;;;;5060874;28;20819;-75
2023/03/20 09:26:52;;;;;;;8.52;6.90;;;10.20;86.00;;;;;;5056872;28;20415;-75
2023/03/20 09:29:19;;;;;;;8.40;7.00;;;10.30;83.30;;;;;;5059605;28;20787;-74
2023/03/20 09:31:46;;;;;;;7.72;6.38;;;10.30;83.80;;;;;;5050823;28;20526;-74
2023/03/20 09:34:12;;;;;;;10.05;7.30;;;10.30;82.00;;;;;;5057804;28;20826;-75
2023/03/20 09:36:40;;;;;;;7.85;6.75;;;10.30;83.00;;;;;;5054017;28;20442;-73
2023/03/20 09:39:07;;;;;;;8.07;7.15;;;10.40;83.20;;;;;;5055654;28;20446;-74
2023/03/20 09:41:36;;;;;;;9.40;7.17;;;10.40;83.20;;;;;;5056846;28;20439;-73
2023/03/20 09:44:13;;;;;;;8.05;6.50;;;10.40;83.50;;;;;;5059167;28;20955;-74
2023/03/20 09:46:57;;;;;;;8.05;6.40;;;10.60;83.10;;;;;;5056266;28;21186;-74
2023/03/20 09:49:33;;;;;;;7.28;6.40;;;10.60;82.80;;;;;;5058748;28;20435;-73
2023/03/20 09:52:05;;;;;;;8.10;6.90;;;10.70;79.30;;;;;;5060256;28;20506;-74
2023/03/20 09:54:36;;;;;;;7.68;6.78;;;10.60;80.00;;;;;;5055344;28;20887;-74
2023/03/20 09:57:04;;;;;;;7.38;6.00;;;10.70;81.70;;;;;;5057307;28;20419;-73
2023/03/20 09:59:34;;;;;;;8.00;6.80;;;10.80;78.40;;;;;;5054678;28;20509;-74
2023/03/20 10:02:06;;;;;;;8.32;6.30;;;10.80;76.80;;;;;;5050102;28;20924;-75
2023/03/20 10:04:34;;;;;;;10.52;7.07;;;10.60;76.40;;;;;;5060379;28;20790;-74
2023/03/20 10:07:04;;;;;;;7.45;6.47;;;10.50;78.10;;;;;;5061419;28;20437;-74
2023/03/20 10:09:32;;;;;;;8.27;6.40;;;10.30;78.90;;;;;;5062032;28;20446;-74
2023/03/20 10:12:10;;;;;;;8.40;6.35;;;10.20;79.20;;;;;;5057039;28;20439;-74
2023/03/20 10:14:47;;;;;;;7.18;6.20;;;10.20;80.20;;;;;;5064069;28;20419;-74
2023/03/20 10:17:29;;;;;;;7.97;6.57;;;10.30;79.40;;;;;;5060044;28;20434;-74
2023/03/20 10:19:59;;;;;;;6.97;6.20;;;10.50;78.90;;;;;;5056868;28;20431;-74
2023/03/20 10:22:30;;;;;;;7.45;6.38;;;10.60;77.60;;;;;;5062695;28;20431;-73
2023/03/20 10:25:06;;;;;;;6.60;5.82;;;10.60;77.30;;;;;;5051702;28;20442;-74
2023/03/20 10:27:37;;;;;;;7.53;5.75;;;10.70;76.90;;;;;;5056314;28;20833;-75
2023/03/20 10:30:28;;;;;;;6.95;5.00;;;10.90;74.90;;;;;;5058165;28;20732;-74
2023/03/20 10:33:04;;;;;;;5.65;4.20;;;11.00;73.00;;;;;;5053628;28;20440;-77
2023/03/20 10:35:39;;;;;;;7.50;5.07;;;11.00;72.00;;;;;;5058461;28;20435;-75
2023/03/20 10:38:24;;;;;;;5.07;4.50;;;11.00;69.20;;;;;;5059592;28;20535;-75
2023/03/20 10:40:52;;;;;;;4.82;2.95;;;10.90;69.00;;;;;;5063068;28;20530;-75
2023/03/20 10:43:23;;;;;;;3.92;3.30;;;10.80;66.50;;;;;;5060829;28;20775;-75
2023/03/20 10:45:53;;;;;;;4.57;2.40;;;10.80;63.70;;;;;;5062216;28;20444;-75
2023/03/20 10:48:25;;;;;;;4.18;2.90;;;10.60;61.70;;;;;;5066264;28;20427;-75
2023/03/20 10:50:54;;;;;;;4.97;2.20;;;10.40;63.00;;;;;;5057939;28;20485;-74
2023/03/20 10:53:29;;;;;;;4.40;2.70;;;10.40;64.10;;;;;;5056929;28;20438;-74
2023/03/20 10:56:00;;;;;;;3.25;2.70;;;10.50;63.50;;;;;;5069852;28;20493;-75
2023/03/20 10:58:30;;;;;;;3.05;2.30;;;10.40;63.80;;;;;;5081383;28;20436;-75
2023/03/20 11:00:59;;;;;;;4.22;2.85;;;10.40;64.40;;;;;;5065555;28;20427;-75
2023/03/20 11:03:29;;;;;;;3.10;2.70;;;10.40;63.80;;;;;;5061892;28;20460;-75
2023/03/20 11:06:00;;;;;;;4.00;2.40;;;10.40;64.70;;;;;;5059134;28;20442;-75
2023/03/20 11:08:35;;;;;;;2.85;2.63;;;10.40;64.80;;;;;;5062753;28;20435;-76
2023/03/20 11:11:03;;;;;;;4.05;3.10;;;10.40;65.50;;;;;;5064432;28;20504;-75
2023/03/20 11:13:33;;;;;;;6.30;2.77;;;10.50;64.30;;;;;;5060157;28;20425;-75
2023/03/20 11:16:30;;;;;;;6.22;3.50;;;10.60;65.40;;;;;;5060890;28;20444;-75
2023/03/20 11:19:05;;;;;;;6.18;3.47;;;10.50;64.60;;;;;;5020328;28;20491;-76
2023/03/20 11:21:32;;;;;;;6.30;3.45;;;10.50;65.10;;;;;;5061518;28;20448;-76
2023/03/20 11:24:01;;;;;;;4.90;3.63;;;10.40;65.90;;;;;;5054427;28;20879;-76
2023/03/20 11:26:36;;;;;;;7.80;3.70;;;10.40;67.00;;;;;;5064916;28;20428;-76
2023/03/20 11:29:07;;;;;;;5.13;3.58;;;10.50;67.20;;;;;;5057315;28;20435;-76
2023/03/20 11:31:35;;;;;;;5.72;3.35;;;10.40;68.20;;;;;;5068183;28;20515;-76
2023/03/20 11:34:11;;;;;;;4.00;3.10;;;10.40;65.50;;;;;;5066281;28;20430;-75
2023/03/20 11:36:40;;;;;;;3.77;3.17;;;10.20;66.80;;;;;;5064446;28;20434;-76
2023/03/20 11:39:14;;;;;;;4.50;3.30;;;10.10;67.60;;;;;;5067077;28;20552;-76
2023/03/20 11:41:49;;;;;;;4.88;3.38;;;10.10;68.90;;;;;;5065756;28;20527;-76
2023/03/20 11:44:27;;;;;;;6.90;3.42;;;10.10;69.20;;;;;;5064530;28;20458;-76
2023/03/20 11:46:59;;;;;;;3.65;2.55;;;10.20;68.60;;;;;;5066115;28;20439;-76
2023/03/20 11:49:28;;;;;;;4.70;3.33;;;10.20;67.00;;;;;;5062857;28;20497;-76
2023/03/20 11:51:59;;;;;;;4.20;2.88;;;10.20;69.90;;;;;;5057993;28;20915;-76
2023/03/20 11:54:28;;;;;;;5.53;3.30;;;10.10;72.40;;;;;;5066286;28;20427;-76
2023/03/20 11:56:57;;;;;;;3.80;3.00;;;10.10;74.20;;;;;;5066734;28;20447;-76
2023/03/20 11:59:29;;;;;;;4.40;3.15;;;10.20;74.90;;;;;;5063084;28;20434;-75
2023/03/20 12:01:58;;;;;;;4.40;3.10;;;10.20;72.10;;;;;;5062188;28;20458;-76
2023/03/20 12:04:29;;;;;;;5.88;3.15;;;10.30;70.70;;;;;;5067138;28;20430;-75
2023/03/20 12:07:00;;;;;;;4.82;3.22;;;10.30;70.30;;;;;;5066634;28;20809;-75
2023/03/20 12:09:43;;;;;;;7.10;3.17;;;10.30;71.70;;;;;;5061806;28;20532;-72
2023/03/20 12:12:19;;;;;;;4.10;2.90;;;10.30;70.40;;;;;;5053685;28;20417;-75
2023/03/20 12:14:54;;;;;;;5.80;3.00;;;10.40;68.80;;;;;;5059805;28;20447;-77
2023/03/20 12:17:35;;;;;;;3.27;2.70;;;10.50;67.60;;;;;;5065160;28;20463;-77
2023/03/20 12:20:07;;;;;;;5.18;3.00;;;10.40;67.70;;;;;;5067433;28;20588;-76
2023/03/20 12:22:39;;;;;;;5.55;2.60;;;10.40;68.50;;;;;;5059386;28;20413;-77
2023/03/20 12:25:18;;;;;;;4.93;3.13;;;10.40;71.50;;;;;;5069620;28;20419;-78
2023/03/20 12:27:52;;;;;;;5.73;3.50;;;10.40;72.10;;;;;;5071660;28;20495;-77
2023/03/20 12:30:28;;;;;;;4.80;3.60;;;10.30;72.40;;;;;;5069342;28;20530;-77
2023/03/20 12:33:03;;;;;;;6.00;3.83;;;10.10;73.70;;;;;;5067222;28;20440;-75
2023/03/20 12:35:31;;;;;;;4.93;3.53;;;10.20;73.70;;;;;;5059880;28;20512;-76
2023/03/20 12:37:58;;;;;;;4.85;3.20;;;10.30;73.50;;;;;;5062204;28;20435;-75
2023/03/20 12:40:42;;;;;;;4.05;3.60;;;10.30;74.00;;;;;;5057846;28;20420;-77
2023/03/20 12:43:14;;;;;;;5.53;3.40;;;10.50;72.80;;;;;;5062147;28;20427;-76
2023/03/20 12:45:47;;;;;;;6.78;3.40;;;10.60;71.70;;;;;;5065217;28;20495;-75
2023/03/20 12:48:43;;;;;;;5.93;3.10;;;10.70;72.70;;;;;;5065121;28;20423;-76
2023/03/20 12:51:18;;;;;;;4.70;2.40;;;10.80;70.70;;;;;;5040788;28;20428;-74
2023/03/20 12:53:57;;;;;;;5.40;2.60;;;10.60;71.00;;;;;;5063950;28;20527;-75
2023/03/20 12:56:35;;;;;;;3.20;2.47;;;10.50;71.20;;;;;;5065070;28;20500;-74